createdAt,value
2023-05-14T00:04:28.504Z,968.81
2023-05-14T00:09:40.675Z,968.71
2023-05-14T00:14:52.854Z,968.65
2023-05-14T00:20:05.020Z,968.57
2023-05-14T00:25:17.265Z,968.56
2023-05-14T00:30:29.466Z,968.6
2023-05-14T00:35:42.042Z,968.4
2023-05-14T00:40:54.236Z,968.39
2023-05-14T00:46:06.874Z,968.37
2023-05-14T00:51:18.992Z,968.25
2023-05-14T00:56:31.254Z,968.31
2023-05-14T01:01:43.480Z,968.32
2023-05-14T01:06:56.046Z,968.17
2023-05-14T01:12:08.518Z,968.14
2023-05-14T01:17:20.634Z,968.17
2023-05-14T01:22:32.953Z,968.22
2023-05-14T01:27:45.065Z,968.16
2023-05-14T01:32:57.284Z,968.1
2023-05-14T01:38:09.907Z,968.04
2023-05-14T01:43:22.017Z,968.09
2023-05-14T01:48:34.365Z,968.04
2023-05-14T01:53:46.479Z,968
2023-05-14T01:58:58.783Z,968.05
2023-05-14T02:04:10.916Z,968.06
2023-05-14T02:09:23.050Z,968
2023-05-14T02:14:35.161Z,968.04
2023-05-14T02:19:47.266Z,967.99
2023-05-14T02:24:59.437Z,967.97
2023-05-14T02:30:11.551Z,967.99
2023-05-14T02:35:24.253Z,968
2023-05-14T02:40:36.365Z,968.04
2023-05-14T02:45:48.636Z,968.08
2023-05-14T02:51:00.848Z,968.2
2023-05-14T02:56:12.955Z,968.12
2023-05-14T03:01:25.163Z,968.21
2023-05-14T03:06:37.911Z,968.04
2023-05-14T03:11:50.016Z,968.14
2023-05-14T03:17:02.177Z,968.12
2023-05-14T03:22:14.500Z,968.17
2023-05-14T03:27:26.608Z,968.09
2023-05-14T03:32:38.799Z,968.09
2023-05-14T03:37:50.995Z,968.09
2023-05-14T03:43:03.109Z,968.15
2023-05-14T03:48:15.271Z,968.12
2023-05-14T03:53:27.550Z,968.09
2023-05-14T03:58:39.696Z,968.02
2023-05-14T04:03:51.967Z,968.02
2023-05-14T04:09:04.343Z,968.04
2023-05-14T04:14:16.518Z,967.98
2023-05-14T04:19:28.645Z,968
2023-05-14T04:24:40.702Z,968.1
2023-05-14T04:29:52.818Z,967.92
2023-05-14T04:35:05.181Z,967.93
2023-05-14T04:40:17.533Z,967.84
2023-05-14T04:45:30.533Z,967.91
2023-05-14T04:50:43.611Z,967.87
2023-05-14T04:55:55.657Z,967.99
2023-05-14T05:01:07.842Z,968.05
2023-05-14T05:06:19.978Z,967.98
2023-05-14T05:11:32.080Z,967.94
2023-05-14T05:16:44.215Z,967.87
2023-05-14T05:21:56.375Z,967.93
2023-05-14T05:27:08.789Z,967.9
2023-05-14T05:32:21.022Z,967.93
2023-05-14T05:37:33.191Z,967.92
2023-05-14T05:42:45.556Z,967.9
2023-05-14T05:47:57.740Z,967.86
2023-05-14T05:53:14.260Z,967.9
2023-05-14T05:58:26.374Z,967.94
2023-05-14T06:03:38.599Z,967.9
2023-05-14T06:08:50.771Z,967.99
2023-05-14T06:14:02.927Z,968.1
2023-05-14T06:19:15.148Z,967.99
2023-05-14T06:24:27.313Z,968.07
2023-05-14T06:29:39.504Z,968.09
2023-05-14T06:34:52.008Z,967.93
2023-05-14T06:40:04.119Z,967.98
2023-05-14T06:45:16.224Z,968.02
2023-05-14T06:50:28.351Z,967.9
2023-05-14T06:55:40.470Z,967.99
2023-05-14T07:00:52.583Z,968
2023-05-14T07:06:04.796Z,967.93
2023-05-14T07:11:16.902Z,967.86
2023-05-14T07:16:29.084Z,967.85
2023-05-14T07:21:41.245Z,967.88
2023-05-14T07:26:53.339Z,967.75
2023-05-14T07:32:05.465Z,967.73
2023-05-14T07:37:17.566Z,967.78
2023-05-14T07:42:36.040Z,967.77
2023-05-14T07:47:49.527Z,967.68
2023-05-14T07:53:01.762Z,967.74
2023-05-14T07:58:13.888Z,967.6
2023-05-14T08:03:26.052Z,967.64
2023-05-14T08:08:38.278Z,967.65
2023-05-14T08:13:50.404Z,967.67
2023-05-14T08:19:02.551Z,967.65
2023-05-14T08:24:14.924Z,967.55
2023-05-14T08:29:27.115Z,967.51
2023-05-14T08:34:39.218Z,967.43
2023-05-14T08:39:51.335Z,967.53
2023-05-14T08:45:03.487Z,967.46
2023-05-14T08:50:16.742Z,967.43
2023-05-14T08:55:28.840Z,967.31
2023-05-14T09:00:41.048Z,967.28
2023-05-14T09:05:53.157Z,967.26
2023-05-14T09:11:07.553Z,967.26
2023-05-14T09:16:19.770Z,967.19
2023-05-14T09:21:33.605Z,967.18
2023-05-14T09:26:45.869Z,967.16
2023-05-14T09:31:58.146Z,967.21
2023-05-14T09:37:10.397Z,967.09
2023-05-14T09:42:22.572Z,967.11
2023-05-14T09:47:34.788Z,967.13
2023-05-14T09:52:46.974Z,967
2023-05-14T09:57:59.213Z,967.01
2023-05-14T10:03:11.468Z,967.01
2023-05-14T10:08:25.230Z,966.94
2023-05-14T10:13:37.348Z,966.97
2023-05-14T10:18:50.531Z,967.04
2023-05-14T10:24:02.709Z,967.11
2023-05-14T10:29:15.012Z,967.08
2023-05-14T10:34:27.141Z,966.97
2023-05-14T10:39:39.438Z,966.94
2023-05-14T10:44:51.619Z,966.8
2023-05-14T10:50:05.374Z,966.92
2023-05-14T10:55:18.490Z,966.84
2023-05-14T11:00:30.601Z,966.72
2023-05-14T11:05:43.221Z,966.73
2023-05-14T11:10:55.498Z,966.65
2023-05-14T11:21:33.097Z,966.61
2023-05-14T11:26:45.485Z,966.57
2023-05-14T11:31:57.729Z,966.47
2023-05-14T11:37:10.059Z,966.46
2023-05-14T11:42:22.264Z,966.44
2023-05-14T11:47:35.039Z,966.47
2023-05-14T11:52:47.168Z,966.47
2023-05-14T11:57:59.295Z,966.25
2023-05-14T12:03:11.564Z,966.27
2023-05-14T12:08:23.759Z,966.33
2023-05-14T12:13:35.878Z,966.33
2023-05-14T12:18:48.098Z,966.41
2023-05-14T12:24:00.269Z,966.34
2023-05-14T12:29:12.393Z,966.25
2023-05-14T12:34:24.611Z,966.11
2023-05-14T12:39:36.732Z,966.16
2023-05-14T12:44:48.854Z,966.18
2023-05-14T12:50:00.970Z,966.22
2023-05-14T12:55:13.078Z,966.21
2023-05-14T13:00:26.177Z,966.26
2023-05-14T13:05:38.651Z,966.26
2023-05-14T13:10:50.871Z,966.17
2023-05-14T13:16:03.584Z,966.18
2023-05-14T13:21:15.712Z,966.13
2023-05-14T13:26:27.844Z,966.09
2023-05-14T13:31:40.037Z,966.04
2023-05-14T13:36:52.233Z,965.99
2023-05-14T13:42:04.365Z,965.81
2023-05-14T13:47:16.532Z,965.78
2023-05-14T13:52:33.781Z,965.71
2023-05-14T13:57:45.937Z,965.59
2023-05-14T14:02:58.611Z,965.46
2023-05-14T14:08:22.530Z,965.53
2023-05-14T14:13:35.855Z,965.44
2023-05-14T14:18:48.007Z,965.54
2023-05-14T14:24:00.150Z,965.5
2023-05-14T14:29:12.264Z,965.53
2023-05-14T14:34:24.511Z,965.52
2023-05-14T14:39:36.715Z,965.54
2023-05-14T14:44:48.817Z,965.46
2023-05-14T14:50:00.919Z,965.38
2023-05-14T14:55:13.111Z,965.37
2023-05-14T15:00:25.253Z,965.39
2023-05-14T15:05:37.373Z,965.35
2023-05-14T15:10:49.481Z,965.35
2023-05-14T15:16:01.591Z,965.22
2023-05-14T15:21:13.703Z,965.21
2023-05-14T15:26:25.827Z,965.24
2023-05-14T15:31:38.050Z,965.24
2023-05-14T15:36:50.251Z,965.2
2023-05-14T15:42:02.428Z,965.05
2023-05-14T15:47:14.612Z,965.13
2023-05-14T15:52:26.722Z,965.11
2023-05-14T15:57:38.820Z,965.12
2023-05-14T16:02:50.977Z,964.94
2023-05-14T16:08:03.134Z,965.07
2023-05-14T16:13:15.246Z,965.17
2023-05-14T16:18:27.406Z,965.22
2023-05-14T16:23:39.520Z,965.29
2023-05-14T16:28:51.705Z,965.35
2023-05-14T16:34:03.824Z,965.44
2023-05-14T16:39:15.938Z,965.32
2023-05-14T16:44:28.082Z,965.4
2023-05-14T16:49:40.182Z,965.43
2023-05-14T16:54:52.282Z,965.37
2023-05-14T17:00:04.730Z,965.45
2023-05-14T17:05:16.850Z,965.31
2023-05-14T17:10:28.963Z,965.31
2023-05-14T17:15:41.105Z,965.32
2023-05-14T17:20:53.417Z,965.33
2023-05-14T17:26:05.641Z,965.43
2023-05-14T17:31:17.809Z,965.47
2023-05-14T17:36:30.066Z,965.42
2023-05-14T17:41:42.190Z,965.45
2023-05-14T17:46:54.359Z,965.58
2023-05-14T17:52:06.551Z,965.56
2023-05-14T17:57:18.658Z,965.6
2023-05-14T18:02:30.823Z,965.56
2023-05-14T18:07:42.973Z,965.69
2023-05-14T18:12:55.081Z,965.69
2023-05-14T18:18:07.353Z,965.75
2023-05-14T18:23:19.763Z,965.79
2023-05-14T18:28:31.878Z,965.75
2023-05-14T18:33:43.974Z,965.79
2023-05-14T18:38:57.796Z,965.73
2023-05-14T18:44:10.048Z,965.72
2023-05-14T18:49:22.876Z,965.7
2023-05-14T18:54:34.990Z,965.74
2023-05-14T18:59:48.902Z,965.82
2023-05-14T19:05:01.048Z,965.83
2023-05-14T19:10:13.628Z,965.88
2023-05-14T19:15:26.037Z,965.98
2023-05-14T19:20:38.373Z,966
2023-05-14T19:25:50.491Z,966.02
2023-05-14T19:31:02.614Z,966.15
2023-05-14T19:36:14.740Z,966.16
2023-05-14T19:41:26.832Z,966.13
2023-05-14T19:46:39.051Z,966.15
2023-05-14T19:51:51.162Z,966.22
2023-05-14T19:57:03.275Z,966.15
2023-05-14T20:02:15.455Z,966.21
2023-05-14T20:07:27.678Z,966.27
2023-05-14T20:12:39.776Z,966.27
2023-05-14T20:17:51.912Z,966.28
2023-05-14T20:23:04.573Z,966.23
2023-05-14T20:28:16.687Z,966.18
2023-05-14T20:33:28.990Z,966.22
2023-05-14T20:38:41.126Z,966.14
2023-05-14T20:43:53.246Z,966.02
2023-05-14T20:49:05.350Z,965.99
2023-05-14T20:54:17.520Z,966.01
2023-05-14T20:59:29.631Z,965.95
2023-05-14T21:04:41.851Z,965.93
2023-05-14T21:09:54.130Z,965.99
2023-05-14T21:15:08.363Z,965.95
2023-05-14T21:20:20.536Z,965.97
2023-05-14T21:25:32.724Z,966
2023-05-14T21:30:44.905Z,965.98
2023-05-14T21:35:57.149Z,965.91
2023-05-14T21:41:09.449Z,965.88
2023-05-14T21:46:21.556Z,965.81
2023-05-14T21:51:33.668Z,965.85
2023-05-14T21:56:45.959Z,965.88
2023-05-14T22:02:06.923Z,965.95
2023-05-14T22:07:19.645Z,965.93
2023-05-14T22:12:31.746Z,965.87
2023-05-14T22:17:43.969Z,965.85
2023-05-14T22:22:56.106Z,965.86
2023-05-14T22:28:08.350Z,965.79
2023-05-14T22:33:20.690Z,965.75
2023-05-14T22:38:32.887Z,965.65
2023-05-14T22:43:45.073Z,965.71
2023-05-14T22:48:57.169Z,965.6
2023-05-14T22:54:09.337Z,965.59
2023-05-14T22:59:23.548Z,965.53
2023-05-14T23:04:36.161Z,965.51
2023-05-14T23:09:48.452Z,965.56
2023-05-14T23:15:00.549Z,965.42
2023-05-14T23:20:12.788Z,965.47
2023-05-14T23:25:25.442Z,965.54
2023-05-14T23:30:37.913Z,965.52
2023-05-14T23:35:50.661Z,965.4
2023-05-14T23:41:02.885Z,965.47
2023-05-14T23:46:15.089Z,965.36
2023-05-14T23:51:27.217Z,965.38
2023-05-14T23:56:39.456Z,965.4
